Colcord, West Virginia
Current Conditions -  °F | °C
As of 6:51 AM on Saturday 22 Nov 2014 (Local Time) from KBKW Reporting Station
Clear Clear  
Wind Chill: -4°   Ceiling: Unl
Heat Index: -4°   Visibility: 10mi
Dew Point: -12°   Wind: 0mph
Humidity: 55%   Direction: NA
Pressure: 30.38"   Gusts: NA
Location:  37.95°N, 81.44°W
Report Text: KBKW 221151Z AUTO 00000KT 10SM CLR M04/M12 A3038 RMK AO2 SLP326 T10391117 10000 21039 50001
Loading
Personal Weather Stations






























Interactive Weather Map New forecast layout! Learn more

10-Day Weather Forecast

Advertisements
Track Severe Weather on mobile